Time;durP1;ratioP1;P1;durP2;ratioP2;P2;SDS_P1;SDS_P2;PMS_P1;PMS_P2;Temp;Humidity;BMP_temperature;BMP_pressure;BME280_temperature;BME280_humidity;BME280_pressure;Samples;Min_cycle;Max_cycle;Signal;HPM_P1;HPM_P2
2023/09/13 00:01:17;;;;;;;457.70;30.77;;;15.70;100.00;;;;;;5041668;28;20056;-90
2023/09/13 00:03:44;;;;;;;286.27;24.50;;;15.70;100.00;;;;;;5035192;28;20056;-90
2023/09/13 00:06:12;;;;;;;171.45;22.35;;;15.60;100.00;;;;;;5031073;28;20160;-90
2023/09/13 00:08:39;;;;;;;254.15;23.55;;;15.60;100.00;;;;;;5050208;28;20053;-89
2023/09/13 00:11:06;;;;;;;231.60;22.50;;;15.60;100.00;;;;;;5032068;28;20056;-89
2023/09/13 00:13:33;;;;;;;212.13;21.60;;;15.70;100.00;;;;;;5029327;28;20134;-90
2023/09/13 00:16:00;;;;;;;380.85;28.77;;;15.70;100.00;;;;;;5047997;28;20136;-90
2023/09/13 00:18:27;;;;;;;116.03;20.63;;;15.60;100.00;;;;;;5033073;28;20055;-89
2023/09/13 00:20:54;;;;;;;226.60;24.83;;;15.60;100.00;;;;;;5030509;28;20103;-90
2023/09/13 00:23:21;;;;;;;75.78;19.75;;;15.60;100.00;;;;;;5038049;28;20059;-90
2023/09/13 00:25:48;;;;;;;68.85;20.60;;;15.60;100.00;;;;;;5045425;28;20033;-89
2023/09/13 00:28:16;;;;;;;74.75;20.38;;;15.60;100.00;;;;;;5040943;28;20059;-90
2023/09/13 00:30:45;;;;;;;53.15;20.38;;;15.60;100.00;;;;;;5035877;28;20067;-90
2023/09/13 00:33:12;;;;;;;70.40;22.17;;;15.60;100.00;;;;;;5028006;28;20055;-90
2023/09/13 00:35:39;;;;;;;61.45;21.50;;;15.60;100.00;;;;;;5029906;28;20056;-89
2023/09/13 00:38:08;;;;;;;48.47;20.20;;;15.70;100.00;;;;;;5028765;28;20103;-89
2023/09/13 00:40:37;;;;;;;54.88;21.88;;;15.70;100.00;;;;;;5030750;28;20040;-90
2023/09/13 00:43:04;;;;;;;56.28;20.67;;;15.70;100.00;;;;;;5031149;28;20437;-90
2023/09/13 00:45:33;;;;;;;58.88;22.70;;;15.70;100.00;;;;;;5033961;28;20060;-90
2023/09/13 00:48:01;;;;;;;62.30;22.20;;;15.70;100.00;;;;;;5035535;28;20410;-90
2023/09/13 00:50:28;;;;;;;66.80;22.15;;;15.70;100.00;;;;;;5033442;28;20613;-90
2023/09/13 00:53:09;;;;;;;70.63;24.90;;;15.70;100.00;;;;;;5031513;28;20147;-90
2023/09/13 00:55:37;;;;;;;71.32;25.63;;;15.70;100.00;;;;;;5034675;28;20549;-90
2023/09/13 00:58:05;;;;;;;92.78;25.13;;;15.80;100.00;;;;;;5052657;28;20041;-89
2023/09/13 01:00:34;;;;;;;91.80;25.58;;;15.80;100.00;;;;;;5045199;28;20126;-90
2023/09/13 01:03:03;;;;;;;93.70;23.83;;;15.80;100.00;;;;;;5027889;28;20049;-89
2023/09/13 01:05:31;;;;;;;69.07;24.75;;;15.80;100.00;;;;;;5031416;28;20052;-88
2023/09/13 01:07:57;;;;;;;90.45;27.25;;;15.90;100.00;;;;;;5031624;28;20138;-88
2023/09/13 01:10:24;;;;;;;103.25;26.80;;;15.80;100.00;;;;;;5045038;28;20049;-89
2023/09/13 01:12:51;;;;;;;72.10;25.08;;;15.90;100.00;;;;;;5029692;28;20076;-89
2023/09/13 01:15:19;;;;;;;105.47;28.17;;;15.90;100.00;;;;;;5031364;28;20048;-90
2023/09/13 01:18:11;;;;;;;98.13;28.52;;;15.90;100.00;;;;;;5024226;28;20061;-89
2023/09/13 01:21:05;;;;;;;83.22;29.00;;;15.90;100.00;;;;;;5030172;28;20088;-89
2023/09/13 01:23:55;;;;;;;82.05;28.13;;;16.00;100.00;;;;;;5049261;28;20044;-89
2023/09/13 01:27:02;;;;;;;97.72;27.58;;;16.00;100.00;;;;;;5026328;28;20494;-89
2023/09/13 01:29:31;;;;;;;102.47;25.17;;;16.00;100.00;;;;;;5030275;28;20106;-89
2023/09/13 01:31:58;;;;;;;70.78;25.25;;;16.00;100.00;;;;;;5040259;28;20114;-89
2023/09/13 01:34:25;;;;;;;119.55;26.48;;;16.00;100.00;;;;;;5031827;28;20124;-89
2023/09/13 01:36:54;;;;;;;83.45;25.33;;;16.00;100.00;;;;;;5031682;28;20063;-89
2023/09/13 01:39:21;;;;;;;83.60;24.67;;;16.00;100.00;;;;;;5030186;28;20075;-89
2023/09/13 01:41:56;;;;;;;135.55;25.42;;;16.00;100.00;;;;;;5030659;28;20049;-89
2023/09/13 01:44:25;;;;;;;74.20;24.67;;;16.00;100.00;;;;;;5028496;28;20124;-90
2023/09/13 01:46:53;;;;;;;90.13;24.92;;;16.00;100.00;;;;;;5047471;28;20057;-89
2023/09/13 01:49:21;;;;;;;88.82;24.90;;;16.10;100.00;;;;;;5028234;28;20063;-90
2023/09/13 01:51:49;;;;;;;119.72;26.98;;;16.10;100.00;;;;;;5026451;28;20140;-89
2023/09/13 01:54:19;;;;;;;97.47;25.17;;;16.20;100.00;;;;;;5030261;28;20049;-88
2023/09/13 01:56:46;;;;;;;138.40;27.98;;;16.20;100.00;;;;;;5028358;28;20108;-88
2023/09/13 01:59:13;;;;;;;106.88;27.13;;;16.30;100.00;;;;;;5031741;28;20543;-88
2023/09/13 02:01:40;;;;;;;183.60;28.67;;;16.40;100.00;;;;;;5031192;28;20493;-89
2023/09/13 02:04:07;;;;;;;174.15;27.70;;;16.40;100.00;;;;;;5024862;28;20095;-88
2023/09/13 02:06:34;;;;;;;111.97;24.70;;;16.50;100.00;;;;;;5042836;28;20565;-89
2023/09/13 02:09:01;;;;;;;175.70;27.80;;;16.50;100.00;;;;;;5028363;28;20620;-89
2023/09/13 02:11:28;;;;;;;123.00;25.10;;;16.60;100.00;;;;;;5034996;28;20626;-89
2023/09/13 02:13:54;;;;;;;161.18;26.73;;;16.70;100.00;;;;;;5033238;28;20052;-90
2023/09/13 02:16:21;;;;;;;144.73;25.00;;;16.70;100.00;;;;;;5032686;28;20037;-90
2023/09/13 02:18:48;;;;;;;0.00;0.00;;;16.80;100.00;;;;;;5031768;28;20080;-92
2023/09/13 02:21:16;;;;;;;0.00;0.00;;;16.80;100.00;;;;;;5033481;28;20076;-90
2023/09/13 02:23:43;;;;;;;0.00;0.00;;;16.80;100.00;;;;;;5033434;28;20052;-91
2023/09/13 02:26:20;;;;;;;0.00;0.00;;;16.90;100.00;;;;;;5034353;28;20393;-90
2023/09/13 02:28:48;;;;;;;0.00;0.00;;;16.90;100.00;;;;;;5036328;28;20049;-92
2023/09/13 02:31:26;;;;;;;0.00;0.00;;;16.90;100.00;;;;;;5035940;28;20045;-93
2023/09/13 02:33:54;;;;;;;0.00;0.00;;;16.90;100.00;;;;;;5036306;28;20045;-93
2023/09/13 02:36:22;;;;;;;0.00;0.00;;;16.90;100.00;;;;;;5035798;28;20090;-92
2023/09/13 02:38:52;;;;;;;0.00;0.00;;;17.00;100.00;;;;;;5034512;28;20049;-92
2023/09/13 02:41:19;;;;;;;0.00;0.00;;;17.00;100.00;;;;;;5032497;28;20482;-92
2023/09/13 02:43:46;;;;;;;0.00;0.00;;;17.00;100.00;;;;;;5050470;28;20053;-92
2023/09/13 02:46:13;;;;;;;0.00;0.00;;;17.00;100.00;;;;;;5030978;28;20045;-92
2023/09/13 02:48:40;;;;;;;0.00;0.00;;;17.00;100.00;;;;;;5025354;28;20120;-92
2023/09/13 02:51:14;;;;;;;0.00;0.00;;;17.00;100.00;;;;;;5041838;28;20132;-91
2023/09/13 02:53:41;;;;;;;0.00;0.00;;;17.10;100.00;;;;;;5063290;28;20049;-91
2023/09/13 02:56:09;;;;;;;0.00;0.00;;;17.10;100.00;;;;;;5028239;28;20055;-90
2023/09/13 02:58:37;;;;;;;0.00;0.00;;;17.10;100.00;;;;;;5027619;28;20055;-91
2023/09/13 03:01:09;;;;;;;0.00;0.00;;;17.10;100.00;;;;;;5026617;28;20053;-91
2023/09/13 03:03:36;;;;;;;0.00;0.00;;;17.10;100.00;;;;;;5030762;28;20190;-91
2023/09/13 03:06:11;;;;;;;0.00;0.00;;;17.10;100.00;;;;;;5048779;28;20053;-91
2023/09/13 03:08:38;;;;;;;0.00;0.00;;;17.10;100.00;;;;;;5033485;28;20251;-91
2023/09/13 03:11:13;;;;;;;0.00;0.00;;;17.10;100.00;;;;;;5035249;28;20123;-93
2023/09/13 03:13:40;;;;;;;0.00;0.00;;;17.00;100.00;;;;;;5034530;28;20080;-88
2023/09/13 03:16:16;;;;;;;0.00;0.00;;;17.00;100.00;;;;;;5031757;28;20049;-90
2023/09/13 03:18:44;;;;;;;0.00;0.00;;;17.00;100.00;;;;;;5031406;28;20060;-91
2023/09/13 03:21:12;;;;;;;0.00;0.00;;;17.00;100.00;;;;;;5055002;28;20049;-92
2023/09/13 03:23:44;;;;;;;0.00;0.00;;;17.00;100.00;;;;;;5043532;28;20079;-92
2023/09/13 03:26:13;;;;;;;0.00;0.00;;;17.00;100.00;;;;;;5039825;28;20157;-92
2023/09/13 03:28:42;;;;;;;0.00;0.00;;;17.00;100.00;;;;;;5029969;28;20149;-90
2023/09/13 03:31:11;;;;;;;0.00;0.00;;;17.00;100.00;;;;;;5034644;28;20451;-90
2023/09/13 03:33:39;;;;;;;0.00;0.00;;;17.00;100.00;;;;;;5035606;28;20047;-90
2023/09/13 03:36:11;;;;;;;0.00;0.00;;;17.00;100.00;;;;;;5030662;28;20075;-90
2023/09/13 03:38:46;;;;;;;0.00;0.00;;;16.90;100.00;;;;;;5034878;28;20080;-91
2023/09/13 03:41:25;;;;;;;0.00;0.00;;;16.90;100.00;;;;;;5035050;28;20144;-91
2023/09/13 03:43:52;;;;;;;0.00;0.00;;;16.80;100.00;;;;;;5035297;28;20064;-92
2023/09/13 03:46:20;;;;;;;0.00;0.00;;;16.80;100.00;;;;;;5033163;28;20071;-92
2023/09/13 03:48:47;;;;;;;0.00;0.00;;;16.80;100.00;;;;;;5035476;28;21016;-92
2023/09/13 03:51:16;;;;;;;0.00;0.00;;;16.70;100.00;;;;;;5048761;28;20498;-91
2023/09/13 03:53:45;;;;;;;0.00;0.00;;;16.70;100.00;;;;;;5031965;28;20064;-92
2023/09/13 03:56:13;;;;;;;0.00;0.00;;;16.70;100.00;;;;;;5032530;28;20073;-91
2023/09/13 03:58:43;;;;;;;0.00;0.00;;;16.70;100.00;;;;;;5029252;28;20607;-91
2023/09/13 04:01:10;;;;;;;0.00;0.00;;;16.70;100.00;;;;;;5028144;28;20056;-91
2023/09/13 04:03:38;;;;;;;0.00;0.00;;;16.70;100.00;;;;;;5035426;28;20064;-92
2023/09/13 04:06:05;;;;;;;0.00;0.00;;;16.70;100.00;;;;;;5035904;28;20060;-91
2023/09/13 04:08:32;;;;;;;0.00;0.00;;;16.70;100.00;;;;;;5032936;28;20061;-92
2023/09/13 04:11:01;;;;;;;0.00;0.00;;;16.70;100.00;;;;;;5035153;28;20106;-91
2023/09/13 04:13:30;;;;;;;0.00;0.00;;;16.70;100.00;;;;;;5018563;28;20130;-90
2023/09/13 04:16:06;;;;;;;0.00;0.00;;;16.70;100.00;;;;;;5029279;28;20046;-90
2023/09/13 04:18:33;;;;;;;0.00;0.00;;;16.70;100.00;;;;;;5029440;28;20154;-91
2023/09/13 04:21:00;;;;;;;0.00;0.00;;;16.70;100.00;;;;;;5031852;28;20115;-90
2023/09/13 04:23:28;;;;;;;0.00;0.00;;;16.70;100.00;;;;;;5027379;28;20623;-91
2023/09/13 04:25:57;;;;;;;0.00;0.00;;;16.70;100.00;;;;;;5038647;28;20056;-89
2023/09/13 04:28:24;;;;;;;0.00;0.00;;;16.70;100.00;;;;;;5035098;28;20132;-90
2023/09/13 04:30:52;;;;;;;0.00;0.00;;;16.80;100.00;;;;;;5035510;28;20075;-91
2023/09/13 04:33:42;;;;;;;0.00;0.00;;;16.80;100.00;;;;;;5034477;28;20060;-91
2023/09/13 04:36:09;;;;;;;0.00;0.00;;;16.80;100.00;;;;;;5035436;28;20456;-92
2023/09/13 04:38:36;;;;;;;0.00;0.00;;;16.80;100.00;;;;;;5037030;28;20099;-93
2023/09/13 04:41:05;;;;;;;0.00;0.00;;;16.80;100.00;;;;;;5035632;28;20044;-92
2023/09/13 04:43:34;;;;;;;0.00;0.00;;;16.80;100.00;;;;;;5030398;28;20106;-94
2023/09/13 04:46:01;;;;;;;0.00;0.00;;;16.80;100.00;;;;;;5041367;28;20438;-94
2023/09/13 04:48:29;;;;;;;0.00;0.00;;;16.80;100.00;;;;;;5043924;28;20052;-95
2023/09/13 04:50:58;;;;;;;0.00;0.00;;;16.80;100.00;;;;;;5043530;28;20091;-95
2023/09/13 04:53:40;;;;;;;0.00;0.00;;;16.90;100.00;;;;;;5040960;28;20048;-94
2023/09/13 04:56:08;;;;;;;0.00;0.00;;;16.90;100.00;;;;;;5030715;28;20060;-94
2023/09/13 04:58:42;;;;;;;0.00;0.00;;;16.90;100.00;;;;;;5049139;28;20469;-93
2023/09/13 05:01:12;;;;;;;0.00;0.00;;;16.90;100.00;;;;;;5035070;28;20051;-95
2023/09/13 05:03:49;;;;;;;0.00;0.00;;;16.90;100.00;;;;;;5040908;28;20053;-95
2023/09/13 05:06:27;;;;;;;0.00;0.00;;;16.90;100.00;;;;;;5037300;28;20057;-93
2023/09/13 05:08:58;;;;;;;0.00;0.00;;;16.90;100.00;;;;;;5039333;28;20103;-96
2023/09/13 05:11:28;;;;;;;0.00;0.00;;;16.90;100.00;;;;;;5034569;28;20055;-94
2023/09/13 05:14:12;;;;;;;0.00;0.00;;;16.90;100.00;;;;;;5037291;28;20112;-93
2023/09/13 05:16:39;;;;;;;0.00;0.00;;;16.90;100.00;;;;;;5067551;28;20120;-93
2023/09/13 05:19:07;;;;;;;0.00;0.00;;;16.90;100.00;;;;;;5033955;28;20223;-94
2023/09/13 05:21:39;;;;;;;0.00;0.00;;;17.00;100.00;;;;;;5036194;28;20049;-95
2023/09/13 05:24:06;;;;;;;0.00;0.00;;;17.00;100.00;;;;;;5031844;28;20497;-92
2023/09/13 05:26:34;;;;;;;0.00;0.00;;;17.00;100.00;;;;;;5035022;28;20124;-92
2023/09/13 05:32:53;;;;;;;0.00;0.00;;;17.00;100.00;;;;;;5029789;28;20129;-96
2023/09/13 05:39:52;;;;;;;0.00;0.00;;;17.00;100.00;;;;;;5042110;28;20040;-96
2023/09/13 05:50:03;;;;;;;0.00;0.00;;;17.00;100.00;;;;;;5062827;28;20084;-95
2023/09/13 05:53:04;;;;;;;0.00;0.00;;;17.00;100.00;;;;;;5010288;28;20045;-96
2023/09/13 05:55:37;;;;;;;0.00;0.00;;;17.00;100.00;;;;;;5044337;28;20071;-95
2023/09/13 05:58:11;;;;;;;0.00;0.00;;;17.10;100.00;;;;;;5044455;28;20056;-90
2023/09/13 06:00:55;;;;;;;0.00;0.00;;;17.10;100.00;;;;;;5044448;28;20056;-94
2023/09/13 06:03:29;;;;;;;0.00;0.00;;;17.10;100.00;;;;;;5041827;28;20044;-94
2023/09/13 06:06:04;;;;;;;0.00;0.00;;;17.10;100.00;;;;;;5042513;28;20069;-96
2023/09/13 06:16:54;;;;;;;0.00;0.00;;;17.10;100.00;;;;;;5057931;28;20223;-95
2023/09/13 06:19:41;;;;;;;0.00;0.00;;;17.20;100.00;;;;;;5038719;28;20055;-96
2023/09/13 06:30:45;;;;;;;0.00;0.00;;;17.30;100.00;;;;;;5046838;28;20066;-95
2023/09/13 06:34:14;;;;;;;0.00;0.00;;;17.30;100.00;;;;;;5004954;28;20055;-94
2023/09/13 06:36:52;;;;;;;0.32;0.32;;;17.30;100.00;;;;;;5065090;28;20116;-96
2023/09/13 06:54:40;;;;;;;0.00;0.00;;;17.30;100.00;;;;;;4988937;28;20455;-95
2023/09/13 06:57:10;;;;;;;0.00;0.00;;;17.30;100.00;;;;;;5002109;28;20050;-95
2023/09/13 06:59:42;;;;;;;0.00;0.00;;;17.30;100.00;;;;;;4997763;28;20061;-95
2023/09/13 07:02:39;;;;;;;0.00;0.00;;;17.30;100.00;;;;;;4992234;28;20050;-94
2023/09/13 07:05:16;;;;;;;0.00;0.00;;;17.30;100.00;;;;;;4988548;28;20570;-93
2023/09/13 07:08:03;;;;;;;0.00;0.00;;;17.30;100.00;;;;;;4971983;28;20077;-94
2023/09/13 07:10:39;;;;;;;0.00;0.00;;;17.30;100.00;;;;;;4995420;28;20042;-94
2023/09/13 07:13:18;;;;;;;0.00;0.00;;;17.20;100.00;;;;;;5004678;28;20502;-96
2023/09/13 07:15:48;;;;;;;0.00;0.00;;;17.20;100.00;;;;;;5013639;28;20101;-95
2023/09/13 07:18:33;;;;;;;0.00;0.00;;;17.20;100.00;;;;;;4999628;28;20072;-94
2023/09/13 07:21:06;;;;;;;0.00;0.00;;;17.30;100.00;;;;;;4998549;28;20053;-95
2023/09/13 07:23:46;;;;;;;0.00;0.00;;;17.30;100.00;;;;;;5009254;28;20057;-95
2023/09/13 07:26:15;;;;;;;0.00;0.00;;;17.30;100.00;;;;;;5038996;28;20059;-95
2023/09/13 07:29:06;;;;;;;0.00;0.00;;;17.30;100.00;;;;;;5056317;28;20049;-95
2023/09/13 07:31:35;;;;;;;0.00;0.00;;;17.40;100.00;;;;;;5036128;28;20076;-93
2023/09/13 07:34:03;;;;;;;0.00;0.00;;;17.50;100.00;;;;;;5027019;28;20532;-94
2023/09/13 07:36:30;;;;;;;0.00;0.00;;;17.50;100.00;;;;;;5032279;28;20507;-93
2023/09/13 07:38:59;;;;;;;0.00;0.00;;;17.60;100.00;;;;;;5033321;28;20049;-94
2023/09/13 07:41:27;;;;;;;0.00;0.00;;;17.60;100.00;;;;;;5048052;28;20053;-94
2023/09/13 07:43:54;;;;;;;0.00;0.00;;;17.60;100.00;;;;;;5057004;28;20049;-95
2023/09/13 07:46:40;;;;;;;0.00;0.00;;;17.60;100.00;;;;;;5054329;28;20048;-95
2023/09/13 07:49:59;;;;;;;0.00;0.00;;;17.70;100.00;;;;;;4963161;28;20061;-96
2023/09/13 07:57:21;;;;;;;0.00;0.00;;;17.70;100.00;;;;;;4963117;28;20445;-96
2023/09/13 08:00:45;;;;;;;0.00;0.00;;;17.70;100.00;;;;;;5030374;28;20100;-96
2023/09/13 08:10:26;;;;;;;0.00;0.00;;;17.50;100.00;;;;;;5076051;28;20073;-92
2023/09/13 08:12:54;;;;;;;0.00;0.00;;;17.60;100.00;;;;;;5059475;22;20088;-74
2023/09/13 08:15:21;;;;;;;0.00;0.00;;;17.60;100.00;;;;;;5025983;28;20509;-74
2023/09/13 08:18:08;;;;;;;0.00;0.00;;;17.70;100.00;;;;;;5027578;28;20055;-74
2023/09/13 08:20:35;;;;;;;0.00;0.00;;;17.80;100.00;;;;;;5043243;28;20122;-74
2023/09/13 08:23:02;;;;;;;0.00;0.00;;;17.80;100.00;;;;;;5040233;28;20390;-74
2023/09/13 08:25:29;;;;;;;0.00;0.00;;;17.90;100.00;;;;;;5043093;28;20060;-75
2023/09/13 08:27:56;;;;;;;0.00;0.00;;;18.00;100.00;;;;;;5038700;28;20051;-74
2023/09/13 08:30:23;;;;;;;0.00;0.00;;;18.30;100.00;;;;;;5044979;28;20049;-74
2023/09/13 08:32:50;;;;;;;0.00;0.00;;;18.50;100.00;;;;;;5028824;28;20049;-74
2023/09/13 08:35:17;;;;;;;0.00;0.00;;;18.60;100.00;;;;;;5020013;28;20049;-74
2023/09/13 08:37:43;;;;;;;0.00;0.00;;;18.60;100.00;;;;;;5035561;28;20149;-74
2023/09/13 08:40:11;;;;;;;0.00;0.00;;;18.70;100.00;;;;;;5041712;28;20492;-74
2023/09/13 08:42:40;;;;;;;0.00;0.00;;;18.70;100.00;;;;;;5041448;28;20065;-74
2023/09/13 08:45:08;;;;;;;0.00;0.00;;;18.80;100.00;;;;;;5025180;28;20471;-75
2023/09/13 08:47:38;;;;;;;0.00;0.00;;;18.80;100.00;;;;;;5042927;28;20420;-74
2023/09/13 08:50:26;;;;;;;0.00;0.00;;;18.70;100.00;;;;;;5038097;28;20057;-74
2023/09/13 08:52:55;;;;;;;0.00;0.00;;;18.70;100.00;;;;;;5019793;28;20527;-74
2023/09/13 08:55:22;;;;;;;0.00;0.00;;;18.90;100.00;;;;;;5036091;28;20049;-74
2023/09/13 08:57:50;;;;;;;0.00;0.00;;;18.80;100.00;;;;;;5025283;28;20049;-74
2023/09/13 09:00:18;;;;;;;0.00;0.00;;;18.80;100.00;;;;;;5024633;28;20084;-74
2023/09/13 09:02:48;;;;;;;0.00;0.00;;;18.80;100.00;;;;;;5042913;28;20080;-74
2023/09/13 09:05:17;;;;;;;0.00;0.00;;;18.90;100.00;;;;;;5041567;28;20467;-74
2023/09/13 09:07:48;;;;;;;0.00;0.00;;;18.90;100.00;;;;;;5036508;28;20068;-73
2023/09/13 09:10:15;;;;;;;0.00;0.00;;;19.00;100.00;;;;;;5021931;28;20497;-74
2023/09/13 09:12:46;;;;;;;0.00;0.00;;;19.00;100.00;;;;;;5036845;28;20461;-74
2023/09/13 09:15:14;;;;;;;0.00;0.00;;;19.20;100.00;;;;;;5020772;28;20133;-74
2023/09/13 09:17:44;;;;;;;0.00;0.00;;;19.10;100.00;;;;;;5044442;28;20056;-74
2023/09/13 09:20:11;;;;;;;0.00;0.00;;;19.10;100.00;;;;;;5043031;28;20055;-74
2023/09/13 09:22:39;;;;;;;0.00;0.00;;;19.10;100.00;;;;;;5055516;28;20055;-74
2023/09/13 09:25:10;;;;;;;0.00;0.00;;;19.20;100.00;;;;;;5041470;28;20056;-74
2023/09/13 09:27:39;;;;;;;0.00;0.00;;;19.10;100.00;;;;;;5020609;28;20053;-74
2023/09/13 09:30:07;;;;;;;0.00;0.00;;;19.10;100.00;;;;;;5030718;28;20152;-74
2023/09/13 09:32:37;;;;;;;0.00;0.00;;;19.20;100.00;;;;;;5043397;28;20481;-74
2023/09/13 09:35:05;;;;;;;0.00;0.00;;;19.30;100.00;;;;;;5025972;28;20064;-74
2023/09/13 09:37:33;;;;;;;0.00;0.00;;;19.30;100.00;;;;;;5043764;28;20559;-74
2023/09/13 09:40:00;;;;;;;0.00;0.00;;;19.40;100.00;;;;;;5022801;28;20557;-74
2023/09/13 09:42:30;;;;;;;0.00;0.00;;;19.50;100.00;;;;;;5024389;28;20417;-74
2023/09/13 09:44:57;;;;;;;0.00;0.00;;;19.50;100.00;;;;;;5023341;28;20084;-74
2023/09/13 09:47:24;;;;;;;0.00;0.00;;;19.60;100.00;;;;;;5039651;28;20107;-74
2023/09/13 09:49:51;;;;;;;0.00;0.00;;;19.60;100.00;;;;;;5034248;28;20053;-74
2023/09/13 09:52:18;;;;;;;0.00;0.00;;;19.50;100.00;;;;;;5014601;28;20059;-74
2023/09/13 09:54:47;;;;;;;0.00;0.00;;;19.40;100.00;;;;;;5036265;28;20053;-74
2023/09/13 09:57:22;;;;;;;0.00;0.00;;;19.40;100.00;;;;;;5031878;28;20075;-74
2023/09/13 09:59:50;;;;;;;0.00;0.00;;;19.10;100.00;;;;;;5028796;28;20114;-74
2023/09/13 10:02:17;;;;;;;0.00;0.00;;;18.80;100.00;;;;;;5041411;28;20067;-74
2023/09/13 10:04:52;;;;;;;0.00;0.00;;;18.40;100.00;;;;;;5045083;28;20070;-74
2023/09/13 10:07:20;;;;;;;0.00;0.00;;;18.10;100.00;;;;;;5034699;28;20052;-74
2023/09/13 10:09:47;;;;;;;0.45;0.20;;;18.10;100.00;;;;;;5034620;28;20049;-74
2023/09/13 10:12:15;;;;;;;0.00;0.00;;;18.00;100.00;;;;;;5022493;28;20052;-74
2023/09/13 10:14:44;;;;;;;0.00;0.00;;;18.00;100.00;;;;;;5008145;28;20166;-73
2023/09/13 10:17:12;;;;;;;0.00;0.00;;;18.00;100.00;;;;;;5041021;28;20489;-73
2023/09/13 10:19:41;;;;;;;0.00;0.00;;;18.00;100.00;;;;;;5022559;28;20086;-73
2023/09/13 10:22:14;;;;;;;0.00;0.00;;;18.00;100.00;;;;;;5035490;28;20120;-73
2023/09/13 10:24:57;;;;;;;0.00;0.00;;;17.90;100.00;;;;;;5022924;28;20056;-74
2023/09/13 10:27:25;;;;;;;0.00;0.00;;;17.80;100.00;;;;;;5031754;28;20521;-73
2023/09/13 10:29:57;;;;;;;0.15;0.15;;;17.70;100.00;;;;;;5022735;28;20579;-73
2023/09/13 10:32:39;;;;;;;0.00;0.00;;;17.70;100.00;;;;;;5034616;28;20462;-73
2023/09/13 10:35:08;;;;;;;0.00;0.00;;;17.60;100.00;;;;;;5020266;28;20061;-73
2023/09/13 10:37:41;;;;;;;0.00;0.00;;;17.50;100.00;;;;;;5022095;28;20056;-74
2023/09/13 10:40:20;;;;;;;0.00;0.00;;;17.50;100.00;;;;;;5040131;28;20416;-73
2023/09/13 10:42:48;;;;;;;0.00;0.00;;;17.40;100.00;;;;;;5030245;28;20590;-73
2023/09/13 10:45:18;;;;;;;0.00;0.00;;;17.50;100.00;;;;;;5036543;28;20052;-73
2023/09/13 10:47:47;;;;;;;0.00;0.00;;;17.50;100.00;;;;;;5018075;28;20127;-73
2023/09/13 10:50:16;;;;;;;0.00;0.00;;;17.60;100.00;;;;;;5022951;28;20492;-73
2023/09/13 10:52:44;;;;;;;0.00;0.00;;;17.60;100.00;;;;;;5019550;28;20525;-73
2023/09/13 10:55:13;;;;;;;0.00;0.00;;;17.60;100.00;;;;;;5035035;28;20511;-73
2023/09/13 10:57:41;;;;;;;0.00;0.00;;;17.70;100.00;;;;;;5012268;28;20123;-73
2023/09/13 11:00:12;;;;;;;0.05;0.05;;;17.70;100.00;;;;;;5036764;28;20497;-73
2023/09/13 11:02:44;;;;;;;0.00;0.00;;;17.60;100.00;;;;;;5041479;28;20332;-73
2023/09/13 11:05:12;;;;;;;0.00;0.00;;;17.30;100.00;;;;;;5037355;28;20083;-73
2023/09/13 11:07:49;;;;;;;0.00;0.00;;;17.30;100.00;;;;;;5040934;28;20135;-74
2023/09/13 11:10:18;;;;;;;0.00;0.00;;;17.40;100.00;;;;;;5037826;28;20052;-73
2023/09/13 11:12:48;;;;;;;0.00;0.00;;;17.30;100.00;;;;;;5048026;28;20053;-73
2023/09/13 11:15:24;;;;;;;0.00;0.00;;;17.30;100.00;;;;;;5017973;28;20529;-73
2023/09/13 11:17:56;;;;;;;0.00;0.00;;;17.20;100.00;;;;;;5011404;28;20659;-73
2023/09/13 11:20:38;;;;;;;0.00;0.00;;;17.20;100.00;;;;;;5015182;28;20056;-73
2023/09/13 11:23:14;;;;;;;0.00;0.00;;;17.20;100.00;;;;;;5028296;28;20504;-73
2023/09/13 11:26:04;;;;;;;0.00;0.00;;;17.20;100.00;;;;;;5024457;28;20063;-73
2023/09/13 11:28:37;;;;;;;0.00;0.00;;;17.30;100.00;;;;;;5041312;28;20682;-73
2023/09/13 11:31:06;;;;;;;0.00;0.00;;;17.20;100.00;;;;;;5040272;28;20223;-73
2023/09/13 11:33:51;;;;;;;0.00;0.00;;;17.30;100.00;;;;;;5035510;28;20060;-73
2023/09/13 11:36:20;;;;;;;0.00;0.00;;;17.40;100.00;;;;;;5021255;28;20107;-73
2023/09/13 11:39:00;;;;;;;0.00;0.00;;;17.40;100.00;;;;;;5025327;28;20057;-73
2023/09/13 11:41:27;;;;;;;0.00;0.00;;;17.40;100.00;;;;;;5045632;28;20049;-73
2023/09/13 11:43:54;;;;;;;0.00;0.00;;;17.40;100.00;;;;;;5041231;28;20469;-73
2023/09/13 11:46:27;;;;;;;0.00;0.00;;;17.40;100.00;;;;;;5020956;28;20136;-73
2023/09/13 11:48:58;;;;;;;0.00;0.00;;;17.40;100.00;;;;;;5023947;28;20045;-73
2023/09/13 11:51:32;;;;;;;0.00;0.00;;;17.30;100.00;;;;;;5038754;28;20055;-73
2023/09/13 11:54:16;;;;;;;0.00;0.00;;;17.30;100.00;;;;;;5022751;28;20143;-74
2023/09/13 11:56:45;;;;;;;0.00;0.00;;;17.20;100.00;;;;;;5013092;28;20559;-74
2023/09/13 11:59:15;;;;;;;0.30;0.25;;;17.20;100.00;;;;;;5023270;28;20051;-74
2023/09/13 12:01:46;;;;;;;0.00;0.00;;;17.10;100.00;;;;;;5040728;28;20084;-74
2023/09/13 12:04:15;;;;;;;0.00;0.00;;;16.90;100.00;;;;;;5047437;28;20053;-74
2023/09/13 12:06:50;;;;;;;0.00;0.00;;;17.00;100.00;;;;;;5043706;28;20599;-74
2023/09/13 12:09:22;;;;;;;0.00;0.00;;;17.00;100.00;;;;;;5017484;28;20056;-73
2023/09/13 12:11:56;;;;;;;0.00;0.00;;;16.90;100.00;;;;;;5020899;28;20410;-73
2023/09/13 12:14:30;;;;;;;0.00;0.00;;;16.90;100.00;;;;;;5025988;28;20545;-73
2023/09/13 12:17:17;;;;;;;0.00;0.00;;;16.80;100.00;;;;;;5028846;28;20056;-73
2023/09/13 12:19:47;;;;;;;0.00;0.00;;;16.90;100.00;;;;;;5039871;28;20045;-73
2023/09/13 12:22:19;;;;;;;0.00;0.00;;;16.90;100.00;;;;;;5041193;28;20132;-74
2023/09/13 12:24:52;;;;;;;0.00;0.00;;;17.00;100.00;;;;;;5036214;28;20052;-74
2023/09/13 12:27:22;;;;;;;0.00;0.00;;;17.00;100.00;;;;;;5021367;28;20519;-73
2023/09/13 12:29:49;;;;;;;0.00;0.00;;;17.00;100.00;;;;;;5037478;28;20793;-73
2023/09/13 12:32:16;;;;;;;0.00;0.00;;;17.00;100.00;;;;;;5023066;28;20049;-73
2023/09/13 12:34:44;;;;;;;0.00;0.00;;;17.00;100.00;;;;;;5038889;28;20053;-74
2023/09/13 12:37:10;;;;;;;0.00;0.00;;;17.10;100.00;;;;;;5025360;28;20053;-73
2023/09/13 12:39:37;;;;;;;0.00;0.00;;;17.20;100.00;;;;;;5041619;28;20160;-73
2023/09/13 12:42:06;;;;;;;0.00;0.00;;;17.00;100.00;;;;;;5034378;28;20057;-73
2023/09/13 12:44:35;;;;;;;0.00;0.00;;;16.90;100.00;;;;;;5038611;28;20081;-73
2023/09/13 12:47:03;;;;;;;0.00;0.00;;;17.00;100.00;;;;;;5022411;28;20167;-73
2023/09/13 12:49:31;;;;;;;0.00;0.00;;;17.00;100.00;;;;;;5019703;28;20048;-73
2023/09/13 12:51:58;;;;;;;0.00;0.00;;;16.90;100.00;;;;;;5033451;28;20060;-73
2023/09/13 12:54:25;;;;;;;0.00;0.00;;;16.80;100.00;;;;;;5024117;28;20057;-73
2023/09/13 12:56:52;;;;;;;0.00;0.00;;;16.90;100.00;;;;;;5023492;28;20048;-73
2023/09/13 12:59:18;;;;;;;0.00;0.00;;;16.90;100.00;;;;;;5023558;28;20499;-73
2023/09/13 13:01:54;;;;;;;0.00;0.00;;;16.90;100.00;;;;;;5020768;28;20111;-72
2023/09/13 13:04:23;;;;;;;0.00;0.00;;;16.90;100.00;;;;;;5017865;28;20057;-73
2023/09/13 13:07:03;;;;;;;0.00;0.00;;;16.80;100.00;;;;;;5023803;28;20060;-73
2023/09/13 13:09:30;;;;;;;0.00;0.00;;;16.80;100.00;;;;;;5041074;28;20045;-73
2023/09/13 13:11:58;;;;;;;0.00;0.00;;;16.80;100.00;;;;;;5042266;28;20687;-73
2023/09/13 13:14:29;;;;;;;0.00;0.00;;;16.80;100.00;;;;;;5029424;28;20053;-73
2023/09/13 13:16:58;;;;;;;0.00;0.00;;;16.80;100.00;;;;;;5042445;28;20061;-73
2023/09/13 13:19:33;;;;;;;0.00;0.00;;;16.70;100.00;;;;;;5038521;28;20493;-73
2023/09/13 13:22:05;;;;;;;0.00;0.00;;;16.70;100.00;;;;;;5021683;28;20557;-73
2023/09/13 13:24:41;;;;;;;0.00;0.00;;;16.50;100.00;;;;;;5024830;28;20616;-73
2023/09/13 13:27:08;;;;;;;0.00;0.00;;;16.60;100.00;;;;;;5036127;28;20076;-73
2023/09/13 13:29:37;;;;;;;0.00;0.00;;;16.60;100.00;;;;;;5024525;28;20057;-73
2023/09/13 13:32:05;;;;;;;0.00;0.00;;;16.50;100.00;;;;;;5020959;28;20520;-73
2023/09/13 13:34:32;;;;;;;0.00;0.00;;;16.50;100.00;;;;;;5040671;28;20094;-73
2023/09/13 13:36:59;;;;;;;0.00;0.00;;;16.40;100.00;;;;;;5024819;28;20068;-73
2023/09/13 13:39:27;;;;;;;0.00;0.00;;;16.40;100.00;;;;;;5039251;28;20714;-73
2023/09/13 13:41:54;;;;;;;0.00;0.00;;;16.30;100.00;;;;;;5031061;28;20053;-74
2023/09/13 13:44:21;;;;;;;0.00;0.00;;;16.30;100.00;;;;;;5015056;28;20063;-74
2023/09/13 13:46:49;;;;;;;0.00;0.00;;;16.30;100.00;;;;;;5023884;28;20048;-74
2023/09/13 13:49:17;;;;;;;0.00;0.00;;;16.30;100.00;;;;;;5024401;28;20052;-74
2023/09/13 13:51:49;;;;;;;0.00;0.00;;;16.30;100.00;;;;;;5023441;28;20052;-74
2023/09/13 13:54:17;;;;;;;0.00;0.00;;;16.20;100.00;;;;;;5023801;28;20049;-73